Presteigne, United Kingdom
Current Conditions -  °F | °C
As of 5:50 PM on Wednesday 26 Nov 2014 (Local Time) from EGOS Reporting Station
Haze Haze  
Wind Chill: 45°   Ceiling: 700
Heat Index: 45°   Visibility: 1.6mi
Dew Point: 45°   Wind: 3mph
Humidity: 100%   Direction: 340°NNW
Pressure: 29.8"   Gusts: NA
Location:  52.27°N, 3.01°W
Report Text: EGOS 261750Z AUTO 34003KT 2600 BR OVC007/// 07/07 Q1009
Loading
Personal Weather Stations






























Interactive Weather Map New forecast layout! Learn more

10-Day Weather Forecast

Advertisements
Track Severe Weather on mobile